sensor_id;sensor_type;location;lat;lon;timestamp;pressure;altitude;pressure_sealevel;temperature;humidity
32109;BME280;18624;50.042;8.436;2023-02-18T00:01:01;101024.88;;;9.25;100.00
32109;BME280;18624;50.042;8.436;2023-02-18T00:03:28;101264.63;;;10.64;100.00
32109;BME280;18624;50.042;8.436;2023-02-18T00:05:55;101257.06;;;10.76;100.00
32109;BME280;18624;50.042;8.436;2023-02-18T00:08:22;101039.66;;;9.31;100.00
32109;BME280;18624;50.042;8.436;2023-02-18T00:10:48;101177.34;;;10.18;100.00
32109;BME280;18624;50.042;8.436;2023-02-18T00:13:15;101167.31;;;10.04;100.00
32109;BME280;18624;50.042;8.436;2023-02-18T00:15:41;101231.47;;;10.52;100.00
32109;BME280;18624;50.042;8.436;2023-02-18T00:18:08;101254.41;;;10.69;100.00
32109;BME280;18624;50.042;8.436;2023-02-18T00:20:38;101235.66;;;10.63;100.00
32109;BME280;18624;50.042;8.436;2023-02-18T00:23:04;101173.03;;;10.17;100.00
32109;BME280;18624;50.042;8.436;2023-02-18T00:25:31;101243.88;;;10.63;100.00
32109;BME280;18624;50.042;8.436;2023-02-18T00:27:57;101113.19;;;9.78;100.00
32109;BME280;18624;50.042;8.436;2023-02-18T00:30:23;101142.28;;;10.02;100.00
32109;BME280;18624;50.042;8.436;2023-02-18T00:32:50;101065.63;;;9.57;100.00
32109;BME280;18624;50.042;8.436;2023-02-18T00:35:19;101243.69;;;10.81;100.00
32109;BME280;18624;50.042;8.436;2023-02-18T00:37:45;101145.28;;;10.15;100.00
32109;BME280;18624;50.042;8.436;2023-02-18T00:40:12;101239.47;;;10.73;100.00
32109;BME280;18624;50.042;8.436;2023-02-18T00:42:38;101227.06;;;10.61;100.00
32109;BME280;18624;50.042;8.436;2023-02-18T00:45:07;101232.94;;;10.60;100.00
32109;BME280;18624;50.042;8.436;2023-02-18T00:47:34;101181.47;;;10.41;100.00
32109;BME280;18624;50.042;8.436;2023-02-18T00:50:01;100976.56;;;9.08;100.00
32109;BME280;18624;50.042;8.436;2023-02-18T00:52:28;101114.59;;;9.93;100.00
32109;BME280;18624;50.042;8.436;2023-02-18T00:54:54;101236.72;;;10.73;100.00
32109;BME280;18624;50.042;8.436;2023-02-18T00:57:21;101012.75;;;9.23;100.00
32109;BME280;18624;50.042;8.436;2023-02-18T00:59:48;101259.72;;;10.83;100.00
32109;BME280;18624;50.042;8.436;2023-02-18T01:02:14;101253.59;;;10.72;100.00
32109;BME280;18624;50.042;8.436;2023-02-18T01:04:41;101033.41;;;9.31;100.00
32109;BME280;18624;50.042;8.436;2023-02-18T01:07:09;101197.56;;;10.35;100.00
32109;BME280;18624;50.042;8.436;2023-02-18T01:09:36;101199.56;;;10.31;100.00
32109;BME280;18624;50.042;8.436;2023-02-18T01:12:03;101258.63;;;10.77;100.00
32109;BME280;18624;50.042;8.436;2023-02-18T01:14:29;101003.53;;;9.06;100.00
32109;BME280;18624;50.042;8.436;2023-02-18T01:16:56;101261.38;;;10.77;100.00
32109;BME280;18624;50.042;8.436;2023-02-18T01:19:22;101198.78;;;10.30;100.00
32109;BME280;18624;50.042;8.436;2023-02-18T01:21:48;101244.66;;;10.64;100.00
32109;BME280;18624;50.042;8.436;2023-02-18T01:24:15;101155.16;;;10.09;100.00
32109;BME280;18624;50.042;8.436;2023-02-18T01:26:41;101229.19;;;10.43;100.00
32109;BME280;18624;50.042;8.436;2023-02-18T01:29:08;101165.97;;;10.23;100.00
32109;BME280;18624;50.042;8.436;2023-02-18T01:31:34;101220.38;;;10.62;100.00
32109;BME280;18624;50.042;8.436;2023-02-18T01:34:01;101224.31;;;10.61;100.00
32109;BME280;18624;50.042;8.436;2023-02-18T01:36:27;101235.19;;;10.72;100.00
32109;BME280;18624;50.042;8.436;2023-02-18T01:38:55;101221.22;;;10.59;100.00
32109;BME280;18624;50.042;8.436;2023-02-18T01:41:21;100918.34;;;8.59;100.00
32109;BME280;18624;50.042;8.436;2023-02-18T01:43:48;101147.88;;;9.88;100.00
32109;BME280;18624;50.042;8.436;2023-02-18T01:46:17;101231.72;;;10.64;100.00
32109;BME280;18624;50.042;8.436;2023-02-18T01:48:54;101055.47;;;9.58;100.00
32109;BME280;18624;50.042;8.436;2023-02-18T01:51:33;101222.63;;;10.71;100.00
32109;BME280;18624;50.042;8.436;2023-02-18T01:54:06;101227.34;;;10.71;100.00
32109;BME280;18624;50.042;8.436;2023-02-18T01:56:45;101155.34;;;10.29;100.00
32109;BME280;18624;50.042;8.436;2023-02-18T01:59:20;101214.00;;;10.73;100.00
32109;BME280;18624;50.042;8.436;2023-02-18T02:01:48;101112.94;;;9.99;100.00
32109;BME280;18624;50.042;8.436;2023-02-18T02:04:15;100937.28;;;8.87;100.00
32109;BME280;18624;50.042;8.436;2023-02-18T02:06:41;101164.66;;;10.38;100.00
32109;BME280;18624;50.042;8.436;2023-02-18T02:09:10;101176.63;;;10.52;100.00
32109;BME280;18624;50.042;8.436;2023-02-18T02:11:40;101205.78;;;10.73;100.00
32109;BME280;18624;50.042;8.436;2023-02-18T02:25:11;101110.91;;;10.10;100.00
32109;BME280;18624;50.042;8.436;2023-02-18T02:28:17;101128.38;;;10.24;100.00
32109;BME280;18624;50.042;8.436;2023-02-18T02:33:55;101212.47;;;10.72;100.00
32109;BME280;18624;50.042;8.436;2023-02-18T02:39:18;101141.94;;;10.38;100.00
32109;BME280;18624;50.042;8.436;2023-02-18T02:44:37;101167.44;;;10.69;100.00
32109;BME280;18624;50.042;8.436;2023-02-18T02:47:10;101157.66;;;10.68;100.00
32109;BME280;18624;50.042;8.436;2023-02-18T02:49:48;100985.63;;;9.46;100.00
32109;BME280;18624;50.042;8.436;2023-02-18T02:52:21;101163.53;;;10.67;100.00
32109;BME280;18624;50.042;8.436;2023-02-18T02:54:48;101016.31;;;9.64;100.00
32109;BME280;18624;50.042;8.436;2023-02-18T03:00:13;100857.03;;;8.63;100.00
32109;BME280;18624;50.042;8.436;2023-02-18T03:08:41;101140.06;;;10.31;100.00
32109;BME280;18624;50.042;8.436;2023-02-18T03:11:15;101113.13;;;10.23;100.00
32109;BME280;18624;50.042;8.436;2023-02-18T03:19:15;101097.56;;;10.12;100.00
32109;BME280;18624;50.042;8.436;2023-02-18T03:24:26;101014.31;;;9.69;100.00
32109;BME280;18624;50.042;8.436;2023-02-18T03:26:58;101133.56;;;10.52;100.00
32109;BME280;18624;50.042;8.436;2023-02-18T03:29:26;101162.81;;;10.62;100.00
32109;BME280;18624;50.042;8.436;2023-02-18T03:31:56;101113.53;;;10.18;100.00
32109;BME280;18624;50.042;8.436;2023-02-18T03:34:28;101141.47;;;10.47;100.00
32109;BME280;18624;50.042;8.436;2023-02-18T03:36:57;101160.88;;;10.63;100.00
32109;BME280;18624;50.042;8.436;2023-02-18T03:39:26;101154.34;;;10.50;100.00
32109;BME280;18624;50.042;8.436;2023-02-18T03:41:54;101125.25;;;10.25;100.00
32109;BME280;18624;50.042;8.436;2023-02-18T03:44:23;101164.44;;;10.56;100.00
32109;BME280;18624;50.042;8.436;2023-02-18T03:46:50;100825.66;;;8.38;100.00
32109;BME280;18624;50.042;8.436;2023-02-18T03:49:17;101153.63;;;10.46;100.00
32109;BME280;18624;50.042;8.436;2023-02-18T03:51:46;100846.19;;;8.53;100.00
32109;BME280;18624;50.042;8.436;2023-02-18T03:54:12;101113.06;;;10.30;100.00
32109;BME280;18624;50.042;8.436;2023-02-18T03:56:40;101137.53;;;10.48;100.00
32109;BME280;18624;50.042;8.436;2023-02-18T03:59:08;101133.25;;;10.47;100.00
32109;BME280;18624;50.042;8.436;2023-02-18T04:01:34;101069.88;;;10.03;100.00
32109;BME280;18624;50.042;8.436;2023-02-18T04:04:01;101118.09;;;10.35;100.00
32109;BME280;18624;50.042;8.436;2023-02-18T04:06:28;100844.78;;;8.38;100.00
32109;BME280;18624;50.042;8.436;2023-02-18T04:08:55;100887.72;;;8.82;100.00
32109;BME280;18624;50.042;8.436;2023-02-18T04:11:21;100950.72;;;9.16;100.00
32109;BME280;18624;50.042;8.436;2023-02-18T04:13:47;101119.66;;;10.36;100.00
32109;BME280;18624;50.042;8.436;2023-02-18T04:16:14;101145.25;;;10.56;100.00
32109;BME280;18624;50.042;8.436;2023-02-18T04:18:40;101126.22;;;10.46;100.00
32109;BME280;18624;50.042;8.436;2023-02-18T04:21:07;101099.81;;;10.25;100.00
32109;BME280;18624;50.042;8.436;2023-02-18T04:23:33;101123.47;;;10.46;100.00
32109;BME280;18624;50.042;8.436;2023-02-18T04:26:01;101059.66;;;10.07;100.00
32109;BME280;18624;50.042;8.436;2023-02-18T04:28:27;101048.38;;;10.02;100.00
32109;BME280;18624;50.042;8.436;2023-02-18T04:30:54;100972.72;;;9.43;100.00
32109;BME280;18624;50.042;8.436;2023-02-18T04:33:20;100986.75;;;9.49;100.00
32109;BME280;18624;50.042;8.436;2023-02-18T04:35:47;100987.47;;;9.56;100.00
32109;BME280;18624;50.042;8.436;2023-02-18T04:38:13;101076.00;;;10.18;100.00
32109;BME280;18624;50.042;8.436;2023-02-18T04:40:40;101056.91;;;10.07;100.00
32109;BME280;18624;50.042;8.436;2023-02-18T04:43:06;101127.34;;;10.48;100.00
32109;BME280;18624;50.042;8.436;2023-02-18T04:45:32;100972.72;;;9.43;100.00
32109;BME280;18624;50.042;8.436;2023-02-18T04:47:59;101144.81;;;10.61;100.00
32109;BME280;18624;50.042;8.436;2023-02-18T04:50:26;101125.75;;;10.51;100.00
32109;BME280;18624;50.042;8.436;2023-02-18T04:52:52;101078.66;;;10.22;100.00
32109;BME280;18624;50.042;8.436;2023-02-18T04:55:19;101096.88;;;10.43;100.00
32109;BME280;18624;50.042;8.436;2023-02-18T04:57:45;101111.59;;;10.56;100.00
32109;BME280;18624;50.042;8.436;2023-02-18T05:00:15;101132.25;;;10.64;100.00
32109;BME280;18624;50.042;8.436;2023-02-18T05:02:43;100965.00;;;9.34;100.00
32109;BME280;18624;50.042;8.436;2023-02-18T05:05:10;101055.03;;;10.04;100.00
32109;BME280;18624;50.042;8.436;2023-02-18T05:07:36;101058.41;;;10.15;100.00
32109;BME280;18624;50.042;8.436;2023-02-18T05:10:04;101014.91;;;9.87;100.00
32109;BME280;18624;50.042;8.436;2023-02-18T05:12:30;101025.69;;;10.01;100.00
32109;BME280;18624;50.042;8.436;2023-02-18T05:14:57;101091.44;;;10.39;100.00
32109;BME280;18624;50.042;8.436;2023-02-18T05:17:23;101100.34;;;10.47;100.00
32109;BME280;18624;50.042;8.436;2023-02-18T05:19:50;101009.94;;;9.75;100.00
32109;BME280;18624;50.042;8.436;2023-02-18T05:22:16;101082.13;;;10.33;100.00
32109;BME280;18624;50.042;8.436;2023-02-18T05:24:43;101028.50;;;9.94;100.00
32109;BME280;18624;50.042;8.436;2023-02-18T05:27:09;101098.66;;;10.56;100.00
32109;BME280;18624;50.042;8.436;2023-02-18T05:29:36;101076.25;;;10.31;100.00
32109;BME280;18624;50.042;8.436;2023-02-18T05:32:02;100834.66;;;8.79;100.00
32109;BME280;18624;50.042;8.436;2023-02-18T05:34:29;101059.03;;;10.30;100.00
32109;BME280;18624;50.042;8.436;2023-02-18T05:36:56;100957.38;;;9.53;100.00
32109;BME280;18624;50.042;8.436;2023-02-18T05:39:23;101106.56;;;10.51;100.00
32109;BME280;18624;50.042;8.436;2023-02-18T05:41:49;100854.00;;;8.96;100.00
32109;BME280;18624;50.042;8.436;2023-02-18T05:44:16;100998.06;;;9.88;100.00
32109;BME280;18624;50.042;8.436;2023-02-18T05:47:04;100987.13;;;9.88;100.00
32109;BME280;18624;50.042;8.436;2023-02-18T05:49:32;100982.16;;;9.76;100.00
32109;BME280;18624;50.042;8.436;2023-02-18T05:51:59;100749.63;;;8.25;100.00
32109;BME280;18624;50.042;8.436;2023-02-18T05:54:26;100846.63;;;8.93;100.00
32109;BME280;18624;50.042;8.436;2023-02-18T05:56:53;101078.09;;;10.41;100.00
32109;BME280;18624;50.042;8.436;2023-02-18T05:59:20;101071.34;;;10.49;100.00
32109;BME280;18624;50.042;8.436;2023-02-18T06:01:46;101073.28;;;10.49;100.00
32109;BME280;18624;50.042;8.436;2023-02-18T06:04:13;100888.53;;;9.24;100.00
32109;BME280;18624;50.042;8.436;2023-02-18T06:06:40;100949.69;;;9.78;100.00
32109;BME280;18624;50.042;8.436;2023-02-18T06:09:07;100863.44;;;9.29;100.00
32109;BME280;18624;50.042;8.436;2023-02-18T06:11:34;101055.69;;;10.50;100.00
32109;BME280;18624;50.042;8.436;2023-02-18T06:14:01;101013.84;;;10.11;100.00
32109;BME280;18624;50.042;8.436;2023-02-18T06:16:28;101061.19;;;10.46;100.00
32109;BME280;18624;50.042;8.436;2023-02-18T06:18:56;101029.75;;;10.24;100.00
32109;BME280;18624;50.042;8.436;2023-02-18T06:21:22;101055.72;;;10.46;100.00
32109;BME280;18624;50.042;8.436;2023-02-18T06:23:49;100971.00;;;9.94;100.00
32109;BME280;18624;50.042;8.436;2023-02-18T06:26:15;101014.22;;;10.13;100.00
32109;BME280;18624;50.042;8.436;2023-02-18T06:28:42;100962.97;;;9.80;100.00
32109;BME280;18624;50.042;8.436;2023-02-18T06:31:08;100824.38;;;8.91;100.00
32109;BME280;18624;50.042;8.436;2023-02-18T06:33:35;100980.13;;;9.84;100.00
32109;BME280;18624;50.042;8.436;2023-02-18T06:36:05;101070.13;;;10.54;100.00
32109;BME280;18624;50.042;8.436;2023-02-18T06:38:38;101003.84;;;9.94;100.00
32109;BME280;18624;50.042;8.436;2023-02-18T06:41:05;101049.22;;;10.33;100.00
32109;BME280;18624;50.042;8.436;2023-02-18T06:43:32;100969.25;;;9.77;100.00
32109;BME280;18624;50.042;8.436;2023-02-18T06:45:58;100967.22;;;9.84;100.00
32109;BME280;18624;50.042;8.436;2023-02-18T06:48:25;101053.19;;;10.28;100.00
32109;BME280;18624;50.042;8.436;2023-02-18T06:50:51;100829.06;;;8.90;100.00
32109;BME280;18624;50.042;8.436;2023-02-18T06:53:18;101090.91;;;10.51;100.00
32109;BME280;18624;50.042;8.436;2023-02-18T06:55:44;100924.63;;;9.46;100.00
32109;BME280;18624;50.042;8.436;2023-02-18T06:58:11;101026.63;;;10.22;100.00
32109;BME280;18624;50.042;8.436;2023-02-18T07:00:38;101080.69;;;10.52;100.00
32109;BME280;18624;50.042;8.436;2023-02-18T07:03:06;101087.69;;;10.56;100.00
32109;BME280;18624;50.042;8.436;2023-02-18T07:05:32;100831.16;;;8.79;100.00
32109;BME280;18624;50.042;8.436;2023-02-18T07:07:59;101069.47;;;10.43;100.00
32109;BME280;18624;50.042;8.436;2023-02-18T07:10:26;100977.75;;;9.86;100.00
32109;BME280;18624;50.042;8.436;2023-02-18T07:12:52;101011.91;;;10.08;100.00
32109;BME280;18624;50.042;8.436;2023-02-18T07:15:18;101063.91;;;10.50;100.00
32109;BME280;18624;50.042;8.436;2023-02-18T07:17:50;101084.22;;;10.52;100.00
32109;BME280;18624;50.042;8.436;2023-02-18T07:20:17;101023.59;;;10.12;100.00
32109;BME280;18624;50.042;8.436;2023-02-18T07:22:44;101052.47;;;10.21;100.00
32109;BME280;18624;50.042;8.436;2023-02-18T07:25:10;101008.88;;;9.99;100.00
32109;BME280;18624;50.042;8.436;2023-02-18T07:27:37;101048.63;;;10.14;100.00
32109;BME280;18624;50.042;8.436;2023-02-18T07:30:04;101037.28;;;10.12;100.00
32109;BME280;18624;50.042;8.436;2023-02-18T07:32:31;101062.63;;;10.24;100.00
32109;BME280;18624;50.042;8.436;2023-02-18T07:34:57;101095.34;;;10.38;100.00
32109;BME280;18624;50.042;8.436;2023-02-18T07:37:23;101084.38;;;10.42;100.00
32109;BME280;18624;50.042;8.436;2023-02-18T07:39:50;100926.38;;;9.29;100.00
32109;BME280;18624;50.042;8.436;2023-02-18T07:42:16;100972.22;;;9.55;100.00
32109;BME280;18624;50.042;8.436;2023-02-18T07:44:43;100977.44;;;9.43;100.00
32109;BME280;18624;50.042;8.436;2023-02-18T07:47:13;100914.75;;;9.18;100.00
32109;BME280;18624;50.042;8.436;2023-02-18T07:49:40;100878.16;;;9.04;100.00
32109;BME280;18624;50.042;8.436;2023-02-18T07:52:06;100898.41;;;9.10;100.00
32109;BME280;18624;50.042;8.436;2023-02-18T07:54:33;101080.44;;;10.43;100.00
32109;BME280;18624;50.042;8.436;2023-02-18T07:57:00;101069.97;;;10.34;100.00
32109;BME280;18624;50.042;8.436;2023-02-18T07:59:27;101050.06;;;10.26;100.00
32109;BME280;18624;50.042;8.436;2023-02-18T08:01:53;101047.75;;;10.25;100.00
32109;BME280;18624;50.042;8.436;2023-02-18T08:04:20;101050.88;;;10.27;100.00
32109;BME280;18624;50.042;8.436;2023-02-18T08:06:48;100846.91;;;9.05;100.00
32109;BME280;18624;50.042;8.436;2023-02-18T08:09:15;100999.50;;;10.00;100.00
32109;BME280;18624;50.042;8.436;2023-02-18T08:11:42;101045.25;;;10.37;100.00
32109;BME280;18624;50.042;8.436;2023-02-18T08:14:09;100753.44;;;8.39;100.00
32109;BME280;18624;50.042;8.436;2023-02-18T08:16:35;100888.84;;;9.29;100.00
32109;BME280;18624;50.042;8.436;2023-02-18T08:19:02;101042.25;;;10.28;99.42
32109;BME280;18624;50.042;8.436;2023-02-18T08:21:30;101036.63;;;10.39;99.13
32109;BME280;18624;50.042;8.436;2023-02-18T08:23:57;100893.84;;;9.38;97.50
32109;BME280;18624;50.042;8.436;2023-02-18T08:26:24;101053.59;;;10.57;96.82
32109;BME280;18624;50.042;8.436;2023-02-18T08:28:51;100721.56;;;8.25;96.65
32109;BME280;18624;50.042;8.436;2023-02-18T08:31:26;101054.81;;;10.56;95.50
32109;BME280;18624;50.042;8.436;2023-02-18T08:33:55;100952.03;;;9.76;94.82
32109;BME280;18624;50.042;8.436;2023-02-18T08:36:22;101060.25;;;10.60;94.52
32109;BME280;18624;50.042;8.436;2023-02-18T08:38:48;101066.91;;;10.59;94.85
32109;BME280;18624;50.042;8.436;2023-02-18T08:41:15;101049.06;;;10.47;95.03
32109;BME280;18624;50.042;8.436;2023-02-18T08:43:44;101075.97;;;10.56;95.50
32109;BME280;18624;50.042;8.436;2023-02-18T08:46:11;101022.34;;;10.21;94.80
32109;BME280;18624;50.042;8.436;2023-02-18T08:48:42;101034.50;;;10.20;93.16
32109;BME280;18624;50.042;8.436;2023-02-18T08:51:20;101079.84;;;10.58;92.74
32109;BME280;18624;50.042;8.436;2023-02-18T08:53:48;100962.66;;;9.71;92.20
32109;BME280;18624;50.042;8.436;2023-02-18T08:56:14;100918.78;;;9.44;93.02
32109;BME280;18624;50.042;8.436;2023-02-18T08:58:42;101083.38;;;10.59;93.02
32109;BME280;18624;50.042;8.436;2023-02-18T09:01:10;101057.81;;;10.35;93.23
32109;BME280;18624;50.042;8.436;2023-02-18T09:03:38;100953.22;;;9.75;92.23
32109;BME280;18624;50.042;8.436;2023-02-18T09:06:04;101045.56;;;10.43;91.51
32109;BME280;18624;50.042;8.436;2023-02-18T09:08:31;100963.25;;;9.89;91.52
32109;BME280;18624;50.042;8.436;2023-02-18T09:11:00;101008.69;;;10.17;91.61
32109;BME280;18624;50.042;8.436;2023-02-18T09:13:26;101052.06;;;10.56;91.78
32109;BME280;18624;50.042;8.436;2023-02-18T09:16:04;100805.69;;;8.85;91.97
32109;BME280;18624;50.042;8.436;2023-02-18T09:18:32;101068.31;;;10.71;92.32
32109;BME280;18624;50.042;8.436;2023-02-18T09:21:00;101042.72;;;10.54;92.35
32109;BME280;18624;50.042;8.436;2023-02-18T09:23:29;101064.03;;;10.70;92.07
32109;BME280;18624;50.042;8.436;2023-02-18T09:25:56;101074.56;;;10.71;92.64
32109;BME280;18624;50.042;8.436;2023-02-18T09:28:23;101063.22;;;10.73;92.16
32109;BME280;18624;50.042;8.436;2023-02-18T09:30:49;100702.44;;;8.25;91.04
32109;BME280;18624;50.042;8.436;2023-02-18T09:33:17;101011.50;;;10.44;91.39
32109;BME280;18624;50.042;8.436;2023-02-18T09:35:44;101058.06;;;10.75;91.33
32109;BME280;18624;50.042;8.436;2023-02-18T09:38:14;100762.41;;;8.80;92.29
32109;BME280;18624;50.042;8.436;2023-02-18T09:40:44;100993.97;;;10.38;91.86
32109;BME280;18624;50.042;8.436;2023-02-18T09:43:21;101052.25;;;10.73;90.89
32109;BME280;18624;50.042;8.436;2023-02-18T09:45:50;100981.16;;;10.31;91.05
32109;BME280;18624;50.042;8.436;2023-02-18T09:48:19;100929.56;;;9.92;91.12
32109;BME280;18624;50.042;8.436;2023-02-18T09:50:52;100997.47;;;10.38;90.96
32109;BME280;18624;50.042;8.436;2023-02-18T09:53:21;101051.13;;;10.67;92.58
32109;BME280;18624;50.042;8.436;2023-02-18T09:55:50;100975.38;;;10.22;92.67
32109;BME280;18624;50.042;8.436;2023-02-18T09:58:21;101068.66;;;10.76;92.73
32109;BME280;18624;50.042;8.436;2023-02-18T10:00:53;101060.59;;;10.62;92.16
32109;BME280;18624;50.042;8.436;2023-02-18T10:03:24;101003.50;;;10.26;92.64
32109;BME280;18624;50.042;8.436;2023-02-18T10:06:05;101069.03;;;10.75;92.87
32109;BME280;18624;50.042;8.436;2023-02-18T10:08:36;101076.88;;;10.76;92.60
32109;BME280;18624;50.042;8.436;2023-02-18T10:11:11;101078.78;;;10.79;91.95
32109;BME280;18624;50.042;8.436;2023-02-18T10:13:40;101093.25;;;10.80;92.17
32109;BME280;18624;50.042;8.436;2023-02-18T10:16:07;101064.03;;;10.70;92.08
32109;BME280;18624;50.042;8.436;2023-02-18T10:18:40;101089.34;;;10.81;91.43
32109;BME280;18624;50.042;8.436;2023-02-18T10:21:16;100917.50;;;9.86;90.00
32109;BME280;18624;50.042;8.436;2023-02-18T10:24:02;101066.22;;;10.82;91.03
32109;BME280;18624;50.042;8.436;2023-02-18T10:26:33;101038.28;;;10.63;90.12
32109;BME280;18624;50.042;8.436;2023-02-18T10:29:00;101006.22;;;10.57;89.56
32109;BME280;18624;50.042;8.436;2023-02-18T10:31:44;101063.75;;;10.91;88.47
32109;BME280;18624;50.042;8.436;2023-02-18T10:34:19;100990.91;;;10.32;88.37
32109;BME280;18624;50.042;8.436;2023-02-18T10:36:54;100956.81;;;10.03;88.58
32109;BME280;18624;50.042;8.436;2023-02-18T10:39:40;101049.59;;;10.65;87.62
32109;BME280;18624;50.042;8.436;2023-02-18T10:45:00;100976.53;;;10.25;90.14
32109;BME280;18624;50.042;8.436;2023-02-18T10:47:35;101058.00;;;10.82;91.05
32109;BME280;18624;50.042;8.436;2023-02-18T10:50:36;101068.13;;;10.85;90.62
32109;BME280;18624;50.042;8.436;2023-02-18T10:55:46;100976.91;;;10.27;91.54
32109;BME280;18624;50.042;8.436;2023-02-18T10:58:35;101070.47;;;10.86;91.42
32109;BME280;18624;50.042;8.436;2023-02-18T11:01:05;100904.72;;;9.76;90.69
32109;BME280;18624;50.042;8.436;2023-02-18T11:08:55;100993.63;;;10.36;90.60
32109;BME280;18624;50.042;8.436;2023-02-18T11:11:29;100954.66;;;10.18;90.57
32109;BME280;18624;50.042;8.436;2023-02-18T11:14:00;101048.53;;;10.86;89.27
32109;BME280;18624;50.042;8.436;2023-02-18T11:16:41;100982.19;;;10.41;89.56
32109;BME280;18624;50.042;8.436;2023-02-18T11:19:33;101046.91;;;10.89;89.40
32109;BME280;18624;50.042;8.436;2023-02-18T11:22:25;100986.28;;;10.56;90.51
32109;BME280;18624;50.042;8.436;2023-02-18T11:24:58;100970.47;;;10.41;89.13
32109;BME280;18624;50.042;8.436;2023-02-18T11:27:30;101037.09;;;10.92;89.05
32109;BME280;18624;50.042;8.436;2023-02-18T11:30:06;100923.72;;;10.21;89.98
32109;BME280;18624;50.042;8.436;2023-02-18T11:32:35;100899.34;;;9.99;89.71
32109;BME280;18624;50.042;8.436;2023-02-18T11:35:03;100989.97;;;10.73;88.18
32109;BME280;18624;50.042;8.436;2023-02-18T11:37:31;101048.34;;;10.97;88.17
32109;BME280;18624;50.042;8.436;2023-02-18T11:39:58;100919.50;;;10.12;88.79
32109;BME280;18624;50.042;8.436;2023-02-18T11:42:25;100796.88;;;9.39;87.51
32109;BME280;18624;50.042;8.436;2023-02-18T11:44:54;100939.97;;;10.35;87.10
32109;BME280;18624;50.042;8.436;2023-02-18T11:47:32;100919.72;;;10.29;86.90
32109;BME280;18624;50.042;8.436;2023-02-18T11:52:37;100994.72;;;10.69;89.12
32109;BME280;18624;50.042;8.436;2023-02-18T11:55:22;101011.63;;;10.91;87.61
32109;BME280;18624;50.042;8.436;2023-02-18T11:57:55;100996.13;;;10.81;87.60
32109;BME280;18624;50.042;8.436;2023-02-18T12:00:43;100968.44;;;10.72;88.06
32109;BME280;18624;50.042;8.436;2023-02-18T12:03:29;100997.97;;;10.87;88.61
32109;BME280;18624;50.042;8.436;2023-02-18T12:06:04;100970.28;;;10.78;88.75
32109;BME280;18624;50.042;8.436;2023-02-18T12:08:42;100931.88;;;10.55;89.04
32109;BME280;18624;50.042;8.436;2023-02-18T12:11:19;100948.44;;;10.71;89.33
32109;BME280;18624;50.042;8.436;2023-02-18T12:13:52;100984.06;;;10.98;89.18
32109;BME280;18624;50.042;8.436;2023-02-18T12:18:57;100890.84;;;10.48;89.58
32109;BME280;18624;50.042;8.436;2023-02-18T12:22:02;100928.25;;;10.61;90.10
32109;BME280;18624;50.042;8.436;2023-02-18T12:25:29;100933.16;;;10.74;91.06
32109;BME280;18624;50.042;8.436;2023-02-18T12:27:45;100968.75;;;11.01;91.45
32109;BME280;18624;50.042;8.436;2023-02-18T12:30:40;100932.63;;;10.82;90.36
32109;BME280;18624;50.042;8.436;2023-02-18T12:33:33;100957.31;;;11.06;90.82
32109;BME280;18624;50.042;8.436;2023-02-18T12:36:32;100864.31;;;10.45;90.44
32109;BME280;18624;50.042;8.436;2023-02-18T12:39:21;100912.41;;;10.73;90.78
32109;BME280;18624;50.042;8.436;2023-02-18T12:47:37;100954.94;;;11.08;90.40
32109;BME280;18624;50.042;8.436;2023-02-18T12:50:21;100965.78;;;11.15;89.13
32109;BME280;18624;50.042;8.436;2023-02-18T12:53:04;100895.59;;;10.71;89.39
32109;BME280;18624;50.042;8.436;2023-02-18T13:02:09;100954.75;;;11.19;92.20
32109;BME280;18624;50.042;8.436;2023-02-18T13:04:51;100950.81;;;11.20;92.60
32109;BME280;18624;50.042;8.436;2023-02-18T13:07:41;100906.97;;;10.93;94.85
32109;BME280;18624;50.042;8.436;2023-02-18T13:10:48;100939.09;;;11.15;95.90
32109;BME280;18624;50.042;8.436;2023-02-18T13:13:19;100958.16;;;11.26;94.85
32109;BME280;18624;50.042;8.436;2023-02-18T13:15:56;100956.22;;;11.23;94.85
32109;BME280;18624;50.042;8.436;2023-02-18T13:18:28;100960.19;;;11.22;94.30
32109;BME280;18624;50.042;8.436;2023-02-18T13:21:07;100890.53;;;10.69;93.95
32109;BME280;18624;50.042;8.436;2023-02-18T13:23:40;100966.50;;;11.19;95.05
32109;BME280;18624;50.042;8.436;2023-02-18T13:26:10;100918.38;;;10.91;94.86
32109;BME280;18624;50.042;8.436;2023-02-18T13:28:54;100951.88;;;11.26;95.07
32109;BME280;18624;50.042;8.436;2023-02-18T13:39:44;100933.50;;;10.76;100.00
32109;BME280;18624;50.042;8.436;2023-02-18T13:47:43;100955.88;;;10.98;100.00
32109;BME280;18624;50.042;8.436;2023-02-18T13:52:49;100887.59;;;10.56;100.00
32109;BME280;18624;50.042;8.436;2023-02-18T13:55:21;100947.59;;;11.01;100.00
32109;BME280;18624;50.042;8.436;2023-02-18T13:57:49;100955.00;;;11.04;100.00
32109;BME280;18624;50.042;8.436;2023-02-18T14:00:21;100910.00;;;10.75;100.00
32109;BME280;18624;50.042;8.436;2023-02-18T14:03:00;100914.69;;;10.78;100.00
32109;BME280;18624;50.042;8.436;2023-02-18T14:05:39;100959.84;;;11.16;100.00
32109;BME280;18624;50.042;8.436;2023-02-18T14:08:29;100955.94;;;11.18;100.00
32109;BME280;18624;50.042;8.436;2023-02-18T14:13:52;100950.22;;;11.08;100.00
32109;BME280;18624;50.042;8.436;2023-02-18T14:16:21;100920.41;;;10.87;100.00
32109;BME280;18624;50.042;8.436;2023-02-18T14:18:56;100838.59;;;10.35;100.00
32109;BME280;18624;50.042;8.436;2023-02-18T14:21:41;100912.59;;;10.85;100.00
32109;BME280;18624;50.042;8.436;2023-02-18T14:24:10;100962.91;;;11.22;100.00
32109;BME280;18624;50.042;8.436;2023-02-18T14:26:42;100946.88;;;10.97;100.00